sensor_id;sensor_type;location;lat;lon;timestamp;temperature;humidity
27226;DHT22;14732;51.074;3.788;2023-08-01T00:01:07;18.60;99.90
27226;DHT22;14732;51.074;3.788;2023-08-01T00:03:33;18.50;99.90
27226;DHT22;14732;51.074;3.788;2023-08-01T00:05:59;18.40;99.90
27226;DHT22;14732;51.074;3.788;2023-08-01T00:08:26;18.40;99.90
27226;DHT22;14732;51.074;3.788;2023-08-01T00:10:54;18.20;99.90
27226;DHT22;14732;51.074;3.788;2023-08-01T00:13:21;18.10;99.90
27226;DHT22;14732;51.074;3.788;2023-08-01T00:15:47;18.00;99.90
27226;DHT22;14732;51.074;3.788;2023-08-01T00:18:13;18.10;99.90
27226;DHT22;14732;51.074;3.788;2023-08-01T00:20:39;18.10;99.90
27226;DHT22;14732;51.074;3.788;2023-08-01T00:23:09;18.10;99.90
27226;DHT22;14732;51.074;3.788;2023-08-01T00:25:35;18.20;99.90
27226;DHT22;14732;51.074;3.788;2023-08-01T00:28:01;18.30;99.90
27226;DHT22;14732;51.074;3.788;2023-08-01T00:30:26;18.20;99.90
27226;DHT22;14732;51.074;3.788;2023-08-01T00:32:53;18.00;99.90
27226;DHT22;14732;51.074;3.788;2023-08-01T00:35:20;18.00;99.90
27226;DHT22;14732;51.074;3.788;2023-08-01T00:37:47;18.00;99.90
27226;DHT22;14732;51.074;3.788;2023-08-01T00:40:13;18.00;99.90
27226;DHT22;14732;51.074;3.788;2023-08-01T00:42:41;18.10;99.90
27226;DHT22;14732;51.074;3.788;2023-08-01T00:45:08;18.10;99.90
27226;DHT22;14732;51.074;3.788;2023-08-01T00:47:34;18.00;99.90
27226;DHT22;14732;51.074;3.788;2023-08-01T00:50:01;17.90;99.90
27226;DHT22;14732;51.074;3.788;2023-08-01T00:52:28;17.90;99.90
27226;DHT22;14732;51.074;3.788;2023-08-01T00:54:56;18.00;99.90
27226;DHT22;14732;51.074;3.788;2023-08-01T00:57:22;18.10;99.90
27226;DHT22;14732;51.074;3.788;2023-08-01T00:59:48;18.00;99.90
27226;DHT22;14732;51.074;3.788;2023-08-01T01:02:13;18.00;99.90
27226;DHT22;14732;51.074;3.788;2023-08-01T01:04:39;17.90;99.90
27226;DHT22;14732;51.074;3.788;2023-08-01T01:07:06;18.00;99.90
27226;DHT22;14732;51.074;3.788;2023-08-01T01:09:32;18.00;99.90
27226;DHT22;14732;51.074;3.788;2023-08-01T01:11:58;18.00;99.90
27226;DHT22;14732;51.074;3.788;2023-08-01T01:14:26;18.00;99.90
27226;DHT22;14732;51.074;3.788;2023-08-01T01:16:52;18.00;99.90
27226;DHT22;14732;51.074;3.788;2023-08-01T01:19:17;18.00;99.90
27226;DHT22;14732;51.074;3.788;2023-08-01T01:21:44;18.20;99.90
27226;DHT22;14732;51.074;3.788;2023-08-01T01:24:11;18.10;99.90
27226;DHT22;14732;51.074;3.788;2023-08-01T01:26:40;18.20;99.90
27226;DHT22;14732;51.074;3.788;2023-08-01T01:29:06;18.20;99.90
27226;DHT22;14732;51.074;3.788;2023-08-01T01:31:34;18.10;99.90
27226;DHT22;14732;51.074;3.788;2023-08-01T01:34:00;17.90;99.90
27226;DHT22;14732;51.074;3.788;2023-08-01T01:36:27;17.80;99.90
27226;DHT22;14732;51.074;3.788;2023-08-01T01:38:53;17.80;99.90
27226;DHT22;14732;51.074;3.788;2023-08-01T01:41:18;17.90;99.90
27226;DHT22;14732;51.074;3.788;2023-08-01T01:43:44;17.80;99.90
27226;DHT22;14732;51.074;3.788;2023-08-01T01:46:10;17.80;99.90
27226;DHT22;14732;51.074;3.788;2023-08-01T01:48:35;17.80;99.90
27226;DHT22;14732;51.074;3.788;2023-08-01T01:51:01;17.60;99.90
27226;DHT22;14732;51.074;3.788;2023-08-01T01:53:27;17.70;99.90
27226;DHT22;14732;51.074;3.788;2023-08-01T01:55:53;17.70;99.90
27226;DHT22;14732;51.074;3.788;2023-08-01T01:58:20;17.80;99.90
27226;DHT22;14732;51.074;3.788;2023-08-01T02:00:48;17.90;99.90
27226;DHT22;14732;51.074;3.788;2023-08-01T02:03:17;17.90;99.90
27226;DHT22;14732;51.074;3.788;2023-08-01T02:05:45;18.10;99.90
27226;DHT22;14732;51.074;3.788;2023-08-01T02:08:12;18.10;99.90
27226;DHT22;14732;51.074;3.788;2023-08-01T02:10:38;18.00;99.90
27226;DHT22;14732;51.074;3.788;2023-08-01T02:13:06;17.90;99.90
27226;DHT22;14732;51.074;3.788;2023-08-01T02:15:34;17.90;99.90
27226;DHT22;14732;51.074;3.788;2023-08-01T02:18:01;17.80;99.90
27226;DHT22;14732;51.074;3.788;2023-08-01T02:20:28;17.90;99.90
27226;DHT22;14732;51.074;3.788;2023-08-01T02:22:55;17.90;99.90
27226;DHT22;14732;51.074;3.788;2023-08-01T02:25:22;18.00;99.90
27226;DHT22;14732;51.074;3.788;2023-08-01T02:27:50;18.00;99.90
27226;DHT22;14732;51.074;3.788;2023-08-01T02:30:18;17.90;99.90
27226;DHT22;14732;51.074;3.788;2023-08-01T02:32:45;18.10;99.90
27226;DHT22;14732;51.074;3.788;2023-08-01T02:35:11;18.10;99.90
27226;DHT22;14732;51.074;3.788;2023-08-01T02:37:41;18.10;99.90
27226;DHT22;14732;51.074;3.788;2023-08-01T02:40:08;18.10;99.90
27226;DHT22;14732;51.074;3.788;2023-08-01T02:42:33;18.10;99.90
27226;DHT22;14732;51.074;3.788;2023-08-01T02:44:59;18.10;99.90
27226;DHT22;14732;51.074;3.788;2023-08-01T02:47:27;18.10;99.90
27226;DHT22;14732;51.074;3.788;2023-08-01T02:49:55;18.20;99.90
27226;DHT22;14732;51.074;3.788;2023-08-01T02:52:27;18.20;99.90
27226;DHT22;14732;51.074;3.788;2023-08-01T02:54:57;18.10;99.90
27226;DHT22;14732;51.074;3.788;2023-08-01T02:57:29;18.00;99.90
27226;DHT22;14732;51.074;3.788;2023-08-01T02:59:57;18.00;99.90
27226;DHT22;14732;51.074;3.788;2023-08-01T03:02:25;18.10;99.90
27226;DHT22;14732;51.074;3.788;2023-08-01T03:04:53;18.10;99.90
27226;DHT22;14732;51.074;3.788;2023-08-01T03:07:19;18.10;99.90
27226;DHT22;14732;51.074;3.788;2023-08-01T03:09:45;18.10;99.90
27226;DHT22;14732;51.074;3.788;2023-08-01T03:12:11;18.10;99.90
27226;DHT22;14732;51.074;3.788;2023-08-01T03:14:40;18.00;99.90
27226;DHT22;14732;51.074;3.788;2023-08-01T03:17:08;18.00;99.90
27226;DHT22;14732;51.074;3.788;2023-08-01T03:19:34;18.00;99.90
27226;DHT22;14732;51.074;3.788;2023-08-01T03:22:02;18.00;99.90
27226;DHT22;14732;51.074;3.788;2023-08-01T03:24:32;18.00;99.90
27226;DHT22;14732;51.074;3.788;2023-08-01T03:26:58;18.10;99.90
27226;DHT22;14732;51.074;3.788;2023-08-01T03:29:24;17.90;99.90
27226;DHT22;14732;51.074;3.788;2023-08-01T03:31:50;17.90;99.90
27226;DHT22;14732;51.074;3.788;2023-08-01T03:34:17;17.90;99.90
27226;DHT22;14732;51.074;3.788;2023-08-01T03:36:43;18.00;99.90
27226;DHT22;14732;51.074;3.788;2023-08-01T03:39:10;17.90;99.90
27226;DHT22;14732;51.074;3.788;2023-08-01T03:41:36;18.00;99.90
27226;DHT22;14732;51.074;3.788;2023-08-01T03:44:05;18.10;99.90
27226;DHT22;14732;51.074;3.788;2023-08-01T03:46:31;18.00;99.90
27226;DHT22;14732;51.074;3.788;2023-08-01T03:48:57;18.10;99.90
27226;DHT22;14732;51.074;3.788;2023-08-01T03:51:24;18.10;99.90
27226;DHT22;14732;51.074;3.788;2023-08-01T03:54:03;18.00;99.90
27226;DHT22;14732;51.074;3.788;2023-08-01T03:56:32;17.90;99.90
27226;DHT22;14732;51.074;3.788;2023-08-01T03:58:59;18.00;99.90
27226;DHT22;14732;51.074;3.788;2023-08-01T04:01:25;18.00;99.90
27226;DHT22;14732;51.074;3.788;2023-08-01T04:03:51;18.00;99.90
27226;DHT22;14732;51.074;3.788;2023-08-01T04:06:16;18.10;99.90
27226;DHT22;14732;51.074;3.788;2023-08-01T04:08:54;18.10;99.90
27226;DHT22;14732;51.074;3.788;2023-08-01T04:11:22;18.00;99.90
27226;DHT22;14732;51.074;3.788;2023-08-01T04:13:48;18.10;99.90
27226;DHT22;14732;51.074;3.788;2023-08-01T04:16:14;17.90;99.90
27226;DHT22;14732;51.074;3.788;2023-08-01T04:18:40;17.90;99.90
27226;DHT22;14732;51.074;3.788;2023-08-01T04:21:08;17.80;99.90
27226;DHT22;14732;51.074;3.788;2023-08-01T04:23:36;17.60;99.90
27226;DHT22;14732;51.074;3.788;2023-08-01T04:26:01;17.50;99.90
27226;DHT22;14732;51.074;3.788;2023-08-01T04:28:31;17.60;99.90
27226;DHT22;14732;51.074;3.788;2023-08-01T04:30:58;17.70;99.90
27226;DHT22;14732;51.074;3.788;2023-08-01T04:33:23;17.80;99.90
27226;DHT22;14732;51.074;3.788;2023-08-01T04:35:49;18.00;99.90
27226;DHT22;14732;51.074;3.788;2023-08-01T04:38:15;17.90;99.90
27226;DHT22;14732;51.074;3.788;2023-08-01T04:40:43;18.00;99.90
27226;DHT22;14732;51.074;3.788;2023-08-01T04:43:09;18.00;99.90
27226;DHT22;14732;51.074;3.788;2023-08-01T04:45:35;18.10;99.90
27226;DHT22;14732;51.074;3.788;2023-08-01T04:48:01;18.10;99.90
27226;DHT22;14732;51.074;3.788;2023-08-01T04:50:27;18.00;99.90
27226;DHT22;14732;51.074;3.788;2023-08-01T04:52:52;18.00;99.90
27226;DHT22;14732;51.074;3.788;2023-08-01T04:55:18;17.90;99.90
27226;DHT22;14732;51.074;3.788;2023-08-01T04:57:44;17.90;99.90
27226;DHT22;14732;51.074;3.788;2023-08-01T05:00:10;18.00;99.90
27226;DHT22;14732;51.074;3.788;2023-08-01T05:02:36;18.10;99.90
27226;DHT22;14732;51.074;3.788;2023-08-01T05:05:02;18.20;99.90
27226;DHT22;14732;51.074;3.788;2023-08-01T05:07:29;18.30;99.90
27226;DHT22;14732;51.074;3.788;2023-08-01T05:09:55;18.50;99.90
27226;DHT22;14732;51.074;3.788;2023-08-01T05:12:21;18.40;99.90
27226;DHT22;14732;51.074;3.788;2023-08-01T05:14:46;18.60;99.90
27226;DHT22;14732;51.074;3.788;2023-08-01T05:17:12;18.70;99.90
27226;DHT22;14732;51.074;3.788;2023-08-01T05:19:37;18.60;99.90
27226;DHT22;14732;51.074;3.788;2023-08-01T05:22:03;18.70;99.90
27226;DHT22;14732;51.074;3.788;2023-08-01T05:24:29;18.70;99.90
27226;DHT22;14732;51.074;3.788;2023-08-01T05:26:55;18.60;99.90
27226;DHT22;14732;51.074;3.788;2023-08-01T05:29:20;18.60;99.90
27226;DHT22;14732;51.074;3.788;2023-08-01T05:31:46;18.50;99.90
27226;DHT22;14732;51.074;3.788;2023-08-01T05:34:11;18.40;99.90
27226;DHT22;14732;51.074;3.788;2023-08-01T05:36:37;18.40;99.90
27226;DHT22;14732;51.074;3.788;2023-08-01T05:39:03;18.50;99.90
27226;DHT22;14732;51.074;3.788;2023-08-01T05:41:29;18.70;99.90
27226;DHT22;14732;51.074;3.788;2023-08-01T05:43:55;18.60;99.90
27226;DHT22;14732;51.074;3.788;2023-08-01T05:46:21;18.60;99.90
27226;DHT22;14732;51.074;3.788;2023-08-01T05:48:46;18.60;99.90
27226;DHT22;14732;51.074;3.788;2023-08-01T05:51:12;18.60;99.90
27226;DHT22;14732;51.074;3.788;2023-08-01T05:53:38;18.90;99.90
27226;DHT22;14732;51.074;3.788;2023-08-01T05:56:03;19.00;99.90
27226;DHT22;14732;51.074;3.788;2023-08-01T05:58:30;19.10;99.90
27226;DHT22;14732;51.074;3.788;2023-08-01T06:00:56;19.10;99.90
27226;DHT22;14732;51.074;3.788;2023-08-01T06:03:22;19.00;99.90
27226;DHT22;14732;51.074;3.788;2023-08-01T06:05:47;18.90;99.90
27226;DHT22;14732;51.074;3.788;2023-08-01T06:08:13;18.90;99.90
27226;DHT22;14732;51.074;3.788;2023-08-01T06:10:42;19.00;99.90
27226;DHT22;14732;51.074;3.788;2023-08-01T06:13:08;18.80;99.90
27226;DHT22;14732;51.074;3.788;2023-08-01T06:15:35;19.10;99.90
27226;DHT22;14732;51.074;3.788;2023-08-01T06:18:03;19.40;99.90
27226;DHT22;14732;51.074;3.788;2023-08-01T06:20:29;19.10;99.90
27226;DHT22;14732;51.074;3.788;2023-08-01T06:22:55;19.30;99.90
27226;DHT22;14732;51.074;3.788;2023-08-01T06:25:22;19.50;99.90
27226;DHT22;14732;51.074;3.788;2023-08-01T06:27:48;19.80;99.90
27226;DHT22;14732;51.074;3.788;2023-08-01T06:30:14;20.50;99.90
27226;DHT22;14732;51.074;3.788;2023-08-01T06:32:40;21.00;99.90
27226;DHT22;14732;51.074;3.788;2023-08-01T06:35:06;21.20;99.90
27226;DHT22;14732;51.074;3.788;2023-08-01T06:37:32;21.30;99.90
27226;DHT22;14732;51.074;3.788;2023-08-01T06:39:58;21.50;99.90
27226;DHT22;14732;51.074;3.788;2023-08-01T06:42:24;21.10;99.90
27226;DHT22;14732;51.074;3.788;2023-08-01T06:44:50;21.10;99.90
27226;DHT22;14732;51.074;3.788;2023-08-01T06:47:16;20.90;99.90
27226;DHT22;14732;51.074;3.788;2023-08-01T06:49:41;20.80;99.90
27226;DHT22;14732;51.074;3.788;2023-08-01T06:52:08;20.70;99.90
27226;DHT22;14732;51.074;3.788;2023-08-01T06:54:34;20.80;99.90
27226;DHT22;14732;51.074;3.788;2023-08-01T06:57:01;20.80;99.90
27226;DHT22;14732;51.074;3.788;2023-08-01T06:59:28;21.10;99.90
27226;DHT22;14732;51.074;3.788;2023-08-01T07:01:55;21.40;99.90
27226;DHT22;14732;51.074;3.788;2023-08-01T07:04:21;21.40;99.90
27226;DHT22;14732;51.074;3.788;2023-08-01T07:06:47;21.50;99.90
27226;DHT22;14732;51.074;3.788;2023-08-01T07:09:14;21.70;99.90
27226;DHT22;14732;51.074;3.788;2023-08-01T07:11:40;21.90;99.90
27226;DHT22;14732;51.074;3.788;2023-08-01T07:14:07;22.10;99.90
27226;DHT22;14732;51.074;3.788;2023-08-01T07:16:34;22.10;99.90
27226;DHT22;14732;51.074;3.788;2023-08-01T07:19:00;21.90;99.90
27226;DHT22;14732;51.074;3.788;2023-08-01T07:21:26;22.00;99.90
27226;DHT22;14732;51.074;3.788;2023-08-01T07:23:52;21.70;99.90
27226;DHT22;14732;51.074;3.788;2023-08-01T07:26:18;21.60;99.90
27226;DHT22;14732;51.074;3.788;2023-08-01T07:28:45;21.80;99.90
27226;DHT22;14732;51.074;3.788;2023-08-01T07:31:12;22.00;99.90
27226;DHT22;14732;51.074;3.788;2023-08-01T07:33:38;21.80;99.90
27226;DHT22;14732;51.074;3.788;2023-08-01T07:36:04;21.70;99.90
27226;DHT22;14732;51.074;3.788;2023-08-01T07:38:31;21.80;99.90
27226;DHT22;14732;51.074;3.788;2023-08-01T07:41:01;21.90;99.90
27226;DHT22;14732;51.074;3.788;2023-08-01T07:43:28;21.90;99.90
27226;DHT22;14732;51.074;3.788;2023-08-01T07:45:58;22.20;99.90
27226;DHT22;14732;51.074;3.788;2023-08-01T07:48:25;22.10;99.90
27226;DHT22;14732;51.074;3.788;2023-08-01T07:50:52;22.10;99.90
27226;DHT22;14732;51.074;3.788;2023-08-01T07:53:17;22.50;99.90
27226;DHT22;14732;51.074;3.788;2023-08-01T07:55:43;22.30;99.90
27226;DHT22;14732;51.074;3.788;2023-08-01T07:58:09;22.30;99.90
27226;DHT22;14732;51.074;3.788;2023-08-01T08:00:35;22.60;99.90
27226;DHT22;14732;51.074;3.788;2023-08-01T08:03:01;22.50;99.90
27226;DHT22;14732;51.074;3.788;2023-08-01T08:05:28;22.30;99.90
27226;DHT22;14732;51.074;3.788;2023-08-01T08:07:54;22.40;99.90
27226;DHT22;14732;51.074;3.788;2023-08-01T08:10:20;22.50;99.90
27226;DHT22;14732;51.074;3.788;2023-08-01T08:12:46;22.20;99.90
27226;DHT22;14732;51.074;3.788;2023-08-01T08:15:12;22.50;99.90
27226;DHT22;14732;51.074;3.788;2023-08-01T08:17:43;22.80;99.90
27226;DHT22;14732;51.074;3.788;2023-08-01T08:20:09;22.90;99.90
27226;DHT22;14732;51.074;3.788;2023-08-01T08:22:35;23.20;99.90
27226;DHT22;14732;51.074;3.788;2023-08-01T08:25:00;23.10;99.90
27226;DHT22;14732;51.074;3.788;2023-08-01T08:27:26;23.00;99.90
27226;DHT22;14732;51.074;3.788;2023-08-01T08:29:52;22.40;99.90
27226;DHT22;14732;51.074;3.788;2023-08-01T08:32:17;22.40;99.90
27226;DHT22;14732;51.074;3.788;2023-08-01T08:34:43;22.60;99.90
27226;DHT22;14732;51.074;3.788;2023-08-01T08:37:09;22.90;99.90
27226;DHT22;14732;51.074;3.788;2023-08-01T08:39:34;23.10;99.90
27226;DHT22;14732;51.074;3.788;2023-08-01T08:42:00;22.60;99.90
27226;DHT22;14732;51.074;3.788;2023-08-01T08:44:26;22.80;99.90
27226;DHT22;14732;51.074;3.788;2023-08-01T08:46:55;22.90;99.90
27226;DHT22;14732;51.074;3.788;2023-08-01T08:49:24;23.00;99.90
27226;DHT22;14732;51.074;3.788;2023-08-01T08:51:52;22.70;99.90
27226;DHT22;14732;51.074;3.788;2023-08-01T08:54:19;22.70;99.90
27226;DHT22;14732;51.074;3.788;2023-08-01T08:56:46;23.00;99.90
27226;DHT22;14732;51.074;3.788;2023-08-01T08:59:12;22.90;99.90
27226;DHT22;14732;51.074;3.788;2023-08-01T09:01:39;23.10;99.90
27226;DHT22;14732;51.074;3.788;2023-08-01T09:04:06;23.90;99.90
27226;DHT22;14732;51.074;3.788;2023-08-01T09:06:44;24.40;99.90
27226;DHT22;14732;51.074;3.788;2023-08-01T09:09:12;24.90;99.90
27226;DHT22;14732;51.074;3.788;2023-08-01T09:11:47;27.80;99.90
27226;DHT22;14732;51.074;3.788;2023-08-01T09:14:15;30.50;99.90
27226;DHT22;14732;51.074;3.788;2023-08-01T09:16:42;31.20;99.90
27226;DHT22;14732;51.074;3.788;2023-08-01T09:19:09;31.10;99.90
27226;DHT22;14732;51.074;3.788;2023-08-01T09:21:36;30.40;99.90
27226;DHT22;14732;51.074;3.788;2023-08-01T09:24:15;30.30;99.90
27226;DHT22;14732;51.074;3.788;2023-08-01T09:26:41;30.40;99.90
27226;DHT22;14732;51.074;3.788;2023-08-01T09:29:08;29.70;99.90
27226;DHT22;14732;51.074;3.788;2023-08-01T09:31:39;28.50;99.90
27226;DHT22;14732;51.074;3.788;2023-08-01T09:34:17;28.30;99.90
27226;DHT22;14732;51.074;3.788;2023-08-01T09:36:43;28.90;99.90
27226;DHT22;14732;51.074;3.788;2023-08-01T09:39:09;29.50;99.90
27226;DHT22;14732;51.074;3.788;2023-08-01T09:41:40;28.70;99.90
27226;DHT22;14732;51.074;3.788;2023-08-01T09:44:11;28.30;99.90
27226;DHT22;14732;51.074;3.788;2023-08-01T09:46:37;27.30;99.90
27226;DHT22;14732;51.074;3.788;2023-08-01T09:49:10;27.10;99.90
27226;DHT22;14732;51.074;3.788;2023-08-01T09:51:49;26.50;99.90
27226;DHT22;14732;51.074;3.788;2023-08-01T09:54:16;25.60;99.90
27226;DHT22;14732;51.074;3.788;2023-08-01T09:56:47;24.60;99.90
27226;DHT22;14732;51.074;3.788;2023-08-01T09:59:23;24.10;99.90
27226;DHT22;14732;51.074;3.788;2023-08-01T10:01:50;24.30;99.90
27226;DHT22;14732;51.074;3.788;2023-08-01T10:04:37;24.50;99.90
27226;DHT22;14732;51.074;3.788;2023-08-01T10:07:11;24.40;99.90
27226;DHT22;14732;51.074;3.788;2023-08-01T10:09:38;23.90;99.90
27226;DHT22;14732;51.074;3.788;2023-08-01T10:12:05;23.90;99.90
27226;DHT22;14732;51.074;3.788;2023-08-01T10:14:35;23.60;99.90
27226;DHT22;14732;51.074;3.788;2023-08-01T10:17:02;23.70;99.90
27226;DHT22;14732;51.074;3.788;2023-08-01T10:19:31;24.00;99.90
27226;DHT22;14732;51.074;3.788;2023-08-01T10:22:02;24.10;99.90
27226;DHT22;14732;51.074;3.788;2023-08-01T10:24:32;24.40;99.90
27226;DHT22;14732;51.074;3.788;2023-08-01T10:27:18;24.60;99.90
27226;DHT22;14732;51.074;3.788;2023-08-01T10:29:44;24.60;99.90
27226;DHT22;14732;51.074;3.788;2023-08-01T10:32:11;24.60;99.90
27226;DHT22;14732;51.074;3.788;2023-08-01T10:34:37;24.80;99.90
27226;DHT22;14732;51.074;3.788;2023-08-01T10:37:05;24.50;99.90
27226;DHT22;14732;51.074;3.788;2023-08-01T10:39:31;24.00;99.90
27226;DHT22;14732;51.074;3.788;2023-08-01T10:42:00;24.30;99.90
27226;DHT22;14732;51.074;3.788;2023-08-01T10:44:27;24.20;99.90
27226;DHT22;14732;51.074;3.788;2023-08-01T10:47:01;24.30;99.90
27226;DHT22;14732;51.074;3.788;2023-08-01T10:49:35;24.10;99.90
27226;DHT22;14732;51.074;3.788;2023-08-01T10:52:03;23.70;99.90
27226;DHT22;14732;51.074;3.788;2023-08-01T10:54:29;23.80;99.90
27226;DHT22;14732;51.074;3.788;2023-08-01T10:56:57;24.20;99.90
27226;DHT22;14732;51.074;3.788;2023-08-01T10:59:27;24.50;99.90
27226;DHT22;14732;51.074;3.788;2023-08-01T11:01:57;24.70;99.90
27226;DHT22;14732;51.074;3.788;2023-08-01T11:04:24;25.00;99.90
27226;DHT22;14732;51.074;3.788;2023-08-01T11:06:54;24.60;99.90
27226;DHT22;14732;51.074;3.788;2023-08-01T11:09:26;24.10;99.90
27226;DHT22;14732;51.074;3.788;2023-08-01T11:11:56;23.70;99.90
27226;DHT22;14732;51.074;3.788;2023-08-01T11:14:24;23.30;99.90
27226;DHT22;14732;51.074;3.788;2023-08-01T11:16:54;23.50;99.90
27226;DHT22;14732;51.074;3.788;2023-08-01T11:19:28;23.90;99.90
27226;DHT22;14732;51.074;3.788;2023-08-01T11:21:57;24.40;99.90
27226;DHT22;14732;51.074;3.788;2023-08-01T11:24:24;24.00;99.90
27226;DHT22;14732;51.074;3.788;2023-08-01T11:26:51;24.00;99.90
27226;DHT22;14732;51.074;3.788;2023-08-01T11:29:17;24.30;99.90
27226;DHT22;14732;51.074;3.788;2023-08-01T11:31:56;24.20;99.90
27226;DHT22;14732;51.074;3.788;2023-08-01T11:34:22;24.40;99.90
27226;DHT22;14732;51.074;3.788;2023-08-01T11:36:48;24.10;99.90
27226;DHT22;14732;51.074;3.788;2023-08-01T11:39:15;23.80;99.90
27226;DHT22;14732;51.074;3.788;2023-08-01T11:41:41;23.80;99.90
27226;DHT22;14732;51.074;3.788;2023-08-01T11:44:07;23.80;99.90
27226;DHT22;14732;51.074;3.788;2023-08-01T11:46:35;24.10;99.90
27226;DHT22;14732;51.074;3.788;2023-08-01T11:49:07;24.00;99.90
27226;DHT22;14732;51.074;3.788;2023-08-01T11:51:39;24.10;99.90
27226;DHT22;14732;51.074;3.788;2023-08-01T11:54:06;23.90;99.90
27226;DHT22;14732;51.074;3.788;2023-08-01T11:56:33;24.10;99.90
27226;DHT22;14732;51.074;3.788;2023-08-01T11:58:59;24.10;99.90
27226;DHT22;14732;51.074;3.788;2023-08-01T12:01:25;24.50;99.90
27226;DHT22;14732;51.074;3.788;2023-08-01T12:03:54;25.10;99.90
27226;DHT22;14732;51.074;3.788;2023-08-01T12:06:24;24.90;99.90
27226;DHT22;14732;51.074;3.788;2023-08-01T12:09:09;24.90;99.90
27226;DHT22;14732;51.074;3.788;2023-08-01T12:11:37;25.00;99.90
27226;DHT22;14732;51.074;3.788;2023-08-01T12:16:45;25.20;99.90
27226;DHT22;14732;51.074;3.788;2023-08-01T12:19:17;25.20;99.90
27226;DHT22;14732;51.074;3.788;2023-08-01T12:21:43;24.50;99.90
27226;DHT22;14732;51.074;3.788;2023-08-01T12:24:10;24.10;99.90
27226;DHT22;14732;51.074;3.788;2023-08-01T12:26:36;24.10;99.90
27226;DHT22;14732;51.074;3.788;2023-08-01T12:29:02;24.10;99.90
27226;DHT22;14732;51.074;3.788;2023-08-01T12:31:29;24.10;99.90
27226;DHT22;14732;51.074;3.788;2023-08-01T12:33:55;24.00;99.90
27226;DHT22;14732;51.074;3.788;2023-08-01T12:36:24;24.30;99.90
27226;DHT22;14732;51.074;3.788;2023-08-01T12:38:51;24.20;99.90
27226;DHT22;14732;51.074;3.788;2023-08-01T12:41:19;24.30;99.90
27226;DHT22;14732;51.074;3.788;2023-08-01T12:43:46;24.60;99.90
27226;DHT22;14732;51.074;3.788;2023-08-01T12:46:13;24.60;99.90
27226;DHT22;14732;51.074;3.788;2023-08-01T12:48:38;24.20;99.90
27226;DHT22;14732;51.074;3.788;2023-08-01T12:51:04;24.10;99.90
27226;DHT22;14732;51.074;3.788;2023-08-01T12:53:30;24.10;99.90
27226;DHT22;14732;51.074;3.788;2023-08-01T12:55:56;23.70;99.90
27226;DHT22;14732;51.074;3.788;2023-08-01T12:58:22;23.60;99.90
27226;DHT22;14732;51.074;3.788;2023-08-01T13:00:48;23.50;99.90
27226;DHT22;14732;51.074;3.788;2023-08-01T13:03:15;23.60;99.90
27226;DHT22;14732;51.074;3.788;2023-08-01T13:05:42;23.80;99.90
27226;DHT22;14732;51.074;3.788;2023-08-01T13:08:09;24.00;99.90
27226;DHT22;14732;51.074;3.788;2023-08-01T13:10:38;24.70;99.90
27226;DHT22;14732;51.074;3.788;2023-08-01T13:13:04;24.80;99.90
27226;DHT22;14732;51.074;3.788;2023-08-01T13:15:30;24.80;99.90
27226;DHT22;14732;51.074;3.788;2023-08-01T13:17:56;24.40;99.90
27226;DHT22;14732;51.074;3.788;2023-08-01T13:20:22;24.30;99.90
27226;DHT22;14732;51.074;3.788;2023-08-01T13:22:50;23.80;99.90
27226;DHT22;14732;51.074;3.788;2023-08-01T13:25:17;23.50;99.90
27226;DHT22;14732;51.074;3.788;2023-08-01T13:27:43;23.50;99.90
27226;DHT22;14732;51.074;3.788;2023-08-01T13:30:09;23.30;99.90
27226;DHT22;14732;51.074;3.788;2023-08-01T13:32:35;23.00;99.90
27226;DHT22;14732;51.074;3.788;2023-08-01T13:35:01;22.60;99.90
27226;DHT22;14732;51.074;3.788;2023-08-01T13:37:28;22.50;99.90
27226;DHT22;14732;51.074;3.788;2023-08-01T13:39:56;22.20;99.90
27226;DHT22;14732;51.074;3.788;2023-08-01T13:42:22;22.00;99.90
27226;DHT22;14732;51.074;3.788;2023-08-01T13:44:48;21.80;99.90
27226;DHT22;14732;51.074;3.788;2023-08-01T13:47:13;22.00;99.90
27226;DHT22;14732;51.074;3.788;2023-08-01T13:49:39;22.10;99.90
27226;DHT22;14732;51.074;3.788;2023-08-01T13:52:05;22.30;99.90
27226;DHT22;14732;51.074;3.788;2023-08-01T13:54:31;22.50;99.90
27226;DHT22;14732;51.074;3.788;2023-08-01T13:56:57;22.50;99.90
27226;DHT22;14732;51.074;3.788;2023-08-01T13:59:23;22.50;99.90
27226;DHT22;14732;51.074;3.788;2023-08-01T14:01:49;22.30;99.90
27226;DHT22;14732;51.074;3.788;2023-08-01T14:04:14;22.20;99.90
27226;DHT22;14732;51.074;3.788;2023-08-01T14:06:41;21.90;99.90
27226;DHT22;14732;51.074;3.788;2023-08-01T14:09:08;21.80;99.90
27226;DHT22;14732;51.074;3.788;2023-08-01T14:11:35;21.80;99.90
27226;DHT22;14732;51.074;3.788;2023-08-01T14:14:00;21.90;99.90
27226;DHT22;14732;51.074;3.788;2023-08-01T14:16:26;21.90;99.90
27226;DHT22;14732;51.074;3.788;2023-08-01T14:18:52;21.90;99.90
27226;DHT22;14732;51.074;3.788;2023-08-01T14:21:17;22.00;99.90
27226;DHT22;14732;51.074;3.788;2023-08-01T14:23:44;22.40;99.90
27226;DHT22;14732;51.074;3.788;2023-08-01T14:26:13;22.40;99.90
27226;DHT22;14732;51.074;3.788;2023-08-01T14:28:39;22.20;99.90
27226;DHT22;14732;51.074;3.788;2023-08-01T14:31:05;22.30;99.90
27226;DHT22;14732;51.074;3.788;2023-08-01T14:33:33;22.50;99.90
27226;DHT22;14732;51.074;3.788;2023-08-01T14:35:58;22.50;99.90
27226;DHT22;14732;51.074;3.788;2023-08-01T14:38:24;22.60;99.90
27226;DHT22;14732;51.074;3.788;2023-08-01T14:40:51;22.60;99.90
27226;DHT22;14732;51.074;3.788;2023-08-01T14:43:19;22.60;99.90
27226;DHT22;14732;51.074;3.788;2023-08-01T14:45:47;22.60;99.90
27226;DHT22;14732;51.074;3.788;2023-08-01T14:48:13;22.70;99.90
27226;DHT22;14732;51.074;3.788;2023-08-01T14:50:39;22.80;99.90
27226;DHT22;14732;51.074;3.788;2023-08-01T14:53:06;22.80;99.90
27226;DHT22;14732;51.074;3.788;2023-08-01T14:55:33;22.80;99.90
27226;DHT22;14732;51.074;3.788;2023-08-01T14:57:59;23.00;99.90
27226;DHT22;14732;51.074;3.788;2023-08-01T15:00:25;22.90;99.90
27226;DHT22;14732;51.074;3.788;2023-08-01T15:02:52;22.80;99.90
27226;DHT22;14732;51.074;3.788;2023-08-01T15:05:18;22.60;99.90
27226;DHT22;14732;51.074;3.788;2023-08-01T15:07:43;22.80;99.90
27226;DHT22;14732;51.074;3.788;2023-08-01T15:10:10;22.80;99.90
27226;DHT22;14732;51.074;3.788;2023-08-01T15:12:37;22.70;99.90
27226;DHT22;14732;51.074;3.788;2023-08-01T15:15:06;22.50;99.90
27226;DHT22;14732;51.074;3.788;2023-08-01T15:17:37;22.50;99.90
27226;DHT22;14732;51.074;3.788;2023-08-01T15:20:03;22.40;99.90
27226;DHT22;14732;51.074;3.788;2023-08-01T15:22:30;22.20;99.90
27226;DHT22;14732;51.074;3.788;2023-08-01T15:24:58;22.20;99.90
27226;DHT22;14732;51.074;3.788;2023-08-01T15:27:26;22.40;99.90
27226;DHT22;14732;51.074;3.788;2023-08-01T15:29:53;22.40;99.90
27226;DHT22;14732;51.074;3.788;2023-08-01T15:32:19;22.40;99.90